sensor_id;sensor_type;location;lat;lon;timestamp;temperature;humidity
16976;DHT22;8604;48.148;-1.786;2023-05-10T00:02:11;11.30;99.90
16976;DHT22;8604;48.148;-1.786;2023-05-10T00:04:40;11.30;99.90
16976;DHT22;8604;48.148;-1.786;2023-05-10T00:07:09;11.20;99.90
16976;DHT22;8604;48.148;-1.786;2023-05-10T00:09:38;11.20;99.90
16976;DHT22;8604;48.148;-1.786;2023-05-10T00:12:07;11.20;99.90
16976;DHT22;8604;48.148;-1.786;2023-05-10T00:14:35;11.10;99.90
16976;DHT22;8604;48.148;-1.786;2023-05-10T00:17:04;11.10;99.90
16976;DHT22;8604;48.148;-1.786;2023-05-10T00:19:32;11.10;99.90
16976;DHT22;8604;48.148;-1.786;2023-05-10T00:22:01;11.10;99.90
16976;DHT22;8604;48.148;-1.786;2023-05-10T00:24:31;11.10;99.90
16976;DHT22;8604;48.148;-1.786;2023-05-10T00:27:00;11.00;99.90
16976;DHT22;8604;48.148;-1.786;2023-05-10T00:29:31;11.00;99.90
16976;DHT22;8604;48.148;-1.786;2023-05-10T00:32:01;11.00;99.90
16976;DHT22;8604;48.148;-1.786;2023-05-10T00:34:29;11.00;99.90
16976;DHT22;8604;48.148;-1.786;2023-05-10T00:36:59;10.90;99.90
16976;DHT22;8604;48.148;-1.786;2023-05-10T00:39:28;10.90;99.90
16976;DHT22;8604;48.148;-1.786;2023-05-10T00:41:58;10.90;99.90
16976;DHT22;8604;48.148;-1.786;2023-05-10T00:44:27;10.90;99.90
16976;DHT22;8604;48.148;-1.786;2023-05-10T00:46:56;10.90;99.90
16976;DHT22;8604;48.148;-1.786;2023-05-10T00:49:25;10.90;99.90
16976;DHT22;8604;48.148;-1.786;2023-05-10T00:51:53;10.90;99.90
16976;DHT22;8604;48.148;-1.786;2023-05-10T00:54:22;10.90;99.90
16976;DHT22;8604;48.148;-1.786;2023-05-10T00:56:51;10.90;99.90
16976;DHT22;8604;48.148;-1.786;2023-05-10T00:59:21;10.90;99.90
16976;DHT22;8604;48.148;-1.786;2023-05-10T01:01:49;10.80;99.90
16976;DHT22;8604;48.148;-1.786;2023-05-10T01:04:18;10.90;99.90
16976;DHT22;8604;48.148;-1.786;2023-05-10T01:06:53;10.80;99.90
16976;DHT22;8604;48.148;-1.786;2023-05-10T01:09:21;10.90;99.90
16976;DHT22;8604;48.148;-1.786;2023-05-10T01:11:50;10.80;99.90
16976;DHT22;8604;48.148;-1.786;2023-05-10T01:14:20;10.80;99.90
16976;DHT22;8604;48.148;-1.786;2023-05-10T01:16:49;10.80;99.90
16976;DHT22;8604;48.148;-1.786;2023-05-10T01:19:22;10.90;99.90
16976;DHT22;8604;48.148;-1.786;2023-05-10T01:21:58;10.80;99.90
16976;DHT22;8604;48.148;-1.786;2023-05-10T01:27:38;10.80;99.90
16976;DHT22;8604;48.148;-1.786;2023-05-10T01:33:35;10.70;99.90
16976;DHT22;8604;48.148;-1.786;2023-05-10T01:36:11;10.70;99.90
16976;DHT22;8604;48.148;-1.786;2023-05-10T01:38:43;10.70;99.90
16976;DHT22;8604;48.148;-1.786;2023-05-10T01:41:17;10.70;99.90
16976;DHT22;8604;48.148;-1.786;2023-05-10T01:43:54;10.60;99.90
16976;DHT22;8604;48.148;-1.786;2023-05-10T01:46:28;10.70;99.90
16976;DHT22;8604;48.148;-1.786;2023-05-10T01:49:00;10.60;99.90
16976;DHT22;8604;48.148;-1.786;2023-05-10T01:51:38;10.60;99.90
16976;DHT22;8604;48.148;-1.786;2023-05-10T01:54:08;10.60;99.90
16976;DHT22;8604;48.148;-1.786;2023-05-10T01:56:38;10.60;99.90
16976;DHT22;8604;48.148;-1.786;2023-05-10T01:59:12;10.60;99.90
16976;DHT22;8604;48.148;-1.786;2023-05-10T02:01:41;10.50;99.90
16976;DHT22;8604;48.148;-1.786;2023-05-10T02:04:14;10.50;99.90
16976;DHT22;8604;48.148;-1.786;2023-05-10T02:06:46;10.50;99.90
16976;DHT22;8604;48.148;-1.786;2023-05-10T02:09:16;10.50;99.90
16976;DHT22;8604;48.148;-1.786;2023-05-10T02:11:48;10.50;99.90
16976;DHT22;8604;48.148;-1.786;2023-05-10T02:14:18;10.50;99.90
16976;DHT22;8604;48.148;-1.786;2023-05-10T02:16:48;10.40;99.90
16976;DHT22;8604;48.148;-1.786;2023-05-10T02:19:20;10.40;99.90
16976;DHT22;8604;48.148;-1.786;2023-05-10T02:21:50;10.40;99.90
16976;DHT22;8604;48.148;-1.786;2023-05-10T02:24:20;10.40;99.90
16976;DHT22;8604;48.148;-1.786;2023-05-10T02:26:50;10.40;99.90
16976;DHT22;8604;48.148;-1.786;2023-05-10T02:29:19;10.40;99.90
16976;DHT22;8604;48.148;-1.786;2023-05-10T02:31:51;10.40;99.90
16976;DHT22;8604;48.148;-1.786;2023-05-10T02:34:23;10.40;99.90
16976;DHT22;8604;48.148;-1.786;2023-05-10T02:36:55;10.40;99.90
16976;DHT22;8604;48.148;-1.786;2023-05-10T02:39:24;10.30;99.90
16976;DHT22;8604;48.148;-1.786;2023-05-10T02:41:57;10.30;99.90
16976;DHT22;8604;48.148;-1.786;2023-05-10T02:44:27;10.30;99.90
16976;DHT22;8604;48.148;-1.786;2023-05-10T02:46:58;10.30;99.90
16976;DHT22;8604;48.148;-1.786;2023-05-10T02:49:30;10.30;99.90
16976;DHT22;8604;48.148;-1.786;2023-05-10T02:52:01;10.30;99.90
16976;DHT22;8604;48.148;-1.786;2023-05-10T02:54:39;10.30;99.90
16976;DHT22;8604;48.148;-1.786;2023-05-10T02:57:12;10.30;99.90
16976;DHT22;8604;48.148;-1.786;2023-05-10T02:59:42;10.30;99.90
16976;DHT22;8604;48.148;-1.786;2023-05-10T03:02:12;10.30;99.90
16976;DHT22;8604;48.148;-1.786;2023-05-10T03:04:42;10.30;99.90
16976;DHT22;8604;48.148;-1.786;2023-05-10T03:07:11;10.20;99.90
16976;DHT22;8604;48.148;-1.786;2023-05-10T03:09:40;10.20;99.90
16976;DHT22;8604;48.148;-1.786;2023-05-10T03:12:13;10.20;99.90
16976;DHT22;8604;48.148;-1.786;2023-05-10T03:14:52;10.20;99.90
16976;DHT22;8604;48.148;-1.786;2023-05-10T03:17:25;10.20;99.90
16976;DHT22;8604;48.148;-1.786;2023-05-10T03:20:03;10.20;99.90
16976;DHT22;8604;48.148;-1.786;2023-05-10T03:22:37;10.10;99.90
16976;DHT22;8604;48.148;-1.786;2023-05-10T03:25:08;10.10;99.90
16976;DHT22;8604;48.148;-1.786;2023-05-10T03:27:42;10.10;99.90
16976;DHT22;8604;48.148;-1.786;2023-05-10T03:30:12;10.10;99.90
16976;DHT22;8604;48.148;-1.786;2023-05-10T03:32:41;10.00;99.90
16976;DHT22;8604;48.148;-1.786;2023-05-10T03:35:12;10.00;99.90
16976;DHT22;8604;48.148;-1.786;2023-05-10T03:37:41;10.00;99.90
16976;DHT22;8604;48.148;-1.786;2023-05-10T03:40:10;10.00;99.90
16976;DHT22;8604;48.148;-1.786;2023-05-10T03:42:41;10.00;99.90
16976;DHT22;8604;48.148;-1.786;2023-05-10T03:45:10;10.00;99.90
16976;DHT22;8604;48.148;-1.786;2023-05-10T03:47:38;10.10;99.90
16976;DHT22;8604;48.148;-1.786;2023-05-10T03:50:08;10.00;99.90
16976;DHT22;8604;48.148;-1.786;2023-05-10T03:52:39;10.10;99.90
16976;DHT22;8604;48.148;-1.786;2023-05-10T03:55:07;10.10;99.90
16976;DHT22;8604;48.148;-1.786;2023-05-10T03:57:37;10.10;99.90
16976;DHT22;8604;48.148;-1.786;2023-05-10T04:00:07;10.10;99.90
16976;DHT22;8604;48.148;-1.786;2023-05-10T04:02:42;10.10;99.90
16976;DHT22;8604;48.148;-1.786;2023-05-10T04:05:17;10.00;99.90
16976;DHT22;8604;48.148;-1.786;2023-05-10T04:07:47;10.00;99.90
16976;DHT22;8604;48.148;-1.786;2023-05-10T04:10:16;10.00;99.90
16976;DHT22;8604;48.148;-1.786;2023-05-10T04:12:45;10.00;99.90
16976;DHT22;8604;48.148;-1.786;2023-05-10T04:15:13;10.00;99.90
16976;DHT22;8604;48.148;-1.786;2023-05-10T04:17:41;10.00;99.90
16976;DHT22;8604;48.148;-1.786;2023-05-10T04:20:11;10.00;99.90
16976;DHT22;8604;48.148;-1.786;2023-05-10T04:22:47;10.10;99.90
16976;DHT22;8604;48.148;-1.786;2023-05-10T04:25:15;10.10;99.90
16976;DHT22;8604;48.148;-1.786;2023-05-10T04:27:44;10.10;99.90
16976;DHT22;8604;48.148;-1.786;2023-05-10T04:30:12;10.10;99.90
16976;DHT22;8604;48.148;-1.786;2023-05-10T04:32:41;10.10;99.90
16976;DHT22;8604;48.148;-1.786;2023-05-10T04:35:12;10.10;99.90
16976;DHT22;8604;48.148;-1.786;2023-05-10T04:37:41;10.10;99.90
16976;DHT22;8604;48.148;-1.786;2023-05-10T04:40:12;10.20;99.90
16976;DHT22;8604;48.148;-1.786;2023-05-10T04:42:41;10.20;99.90
16976;DHT22;8604;48.148;-1.786;2023-05-10T04:45:10;10.20;99.90
16976;DHT22;8604;48.148;-1.786;2023-05-10T04:47:41;10.20;99.90
16976;DHT22;8604;48.148;-1.786;2023-05-10T04:50:09;10.20;99.90
16976;DHT22;8604;48.148;-1.786;2023-05-10T04:52:37;10.20;99.90
16976;DHT22;8604;48.148;-1.786;2023-05-10T04:55:06;10.20;99.90
16976;DHT22;8604;48.148;-1.786;2023-05-10T04:57:37;10.30;99.90
16976;DHT22;8604;48.148;-1.786;2023-05-10T05:00:07;10.30;99.90
16976;DHT22;8604;48.148;-1.786;2023-05-10T05:02:35;10.30;99.90
16976;DHT22;8604;48.148;-1.786;2023-05-10T05:05:04;10.30;99.90
16976;DHT22;8604;48.148;-1.786;2023-05-10T05:07:33;10.30;99.90
16976;DHT22;8604;48.148;-1.786;2023-05-10T05:10:01;10.30;99.90
16976;DHT22;8604;48.148;-1.786;2023-05-10T05:12:30;10.40;99.90
16976;DHT22;8604;48.148;-1.786;2023-05-10T05:15:00;10.40;99.90
16976;DHT22;8604;48.148;-1.786;2023-05-10T05:17:30;10.40;99.90
16976;DHT22;8604;48.148;-1.786;2023-05-10T05:19:59;10.40;99.90
16976;DHT22;8604;48.148;-1.786;2023-05-10T05:22:27;10.50;99.90
16976;DHT22;8604;48.148;-1.786;2023-05-10T05:24:56;10.60;99.90
16976;DHT22;8604;48.148;-1.786;2023-05-10T05:27:25;10.60;99.90
16976;DHT22;8604;48.148;-1.786;2023-05-10T05:29:55;10.60;99.90
16976;DHT22;8604;48.148;-1.786;2023-05-10T05:32:25;10.60;99.90
16976;DHT22;8604;48.148;-1.786;2023-05-10T05:34:53;10.70;99.90
16976;DHT22;8604;48.148;-1.786;2023-05-10T05:37:22;10.70;99.90
16976;DHT22;8604;48.148;-1.786;2023-05-10T05:39:51;10.80;99.90
16976;DHT22;8604;48.148;-1.786;2023-05-10T05:42:21;10.80;99.90
16976;DHT22;8604;48.148;-1.786;2023-05-10T05:44:49;10.90;99.90
16976;DHT22;8604;48.148;-1.786;2023-05-10T21:32:43;13.20;99.90
16976;DHT22;8604;48.148;-1.786;2023-05-10T21:35:11;13.10;99.90
16976;DHT22;8604;48.148;-1.786;2023-05-10T21:37:40;13.10;99.90
16976;DHT22;8604;48.148;-1.786;2023-05-10T21:40:09;13.10;99.90
16976;DHT22;8604;48.148;-1.786;2023-05-10T21:42:38;13.10;99.90
16976;DHT22;8604;48.148;-1.786;2023-05-10T21:45:07;13.10;99.90
16976;DHT22;8604;48.148;-1.786;2023-05-10T21:47:35;13.10;99.90
16976;DHT22;8604;48.148;-1.786;2023-05-10T21:50:06;13.00;99.90
16976;DHT22;8604;48.148;-1.786;2023-05-10T21:52:36;13.00;99.90
16976;DHT22;8604;48.148;-1.786;2023-05-10T21:55:05;13.00;99.90
16976;DHT22;8604;48.148;-1.786;2023-05-10T21:57:35;13.00;99.90
16976;DHT22;8604;48.148;-1.786;2023-05-10T22:00:04;13.00;99.90
16976;DHT22;8604;48.148;-1.786;2023-05-10T22:02:33;13.00;99.90
16976;DHT22;8604;48.148;-1.786;2023-05-10T22:05:02;12.90;99.90
16976;DHT22;8604;48.148;-1.786;2023-05-10T22:07:32;13.00;99.90
16976;DHT22;8604;48.148;-1.786;2023-05-10T22:10:01;12.90;99.90
16976;DHT22;8604;48.148;-1.786;2023-05-10T22:12:29;12.90;99.90
16976;DHT22;8604;48.148;-1.786;2023-05-10T22:14:57;12.80;99.90
16976;DHT22;8604;48.148;-1.786;2023-05-10T22:17:32;12.70;99.90
16976;DHT22;8604;48.148;-1.786;2023-05-10T22:20:01;12.70;99.90
16976;DHT22;8604;48.148;-1.786;2023-05-10T22:22:32;12.70;99.90
16976;DHT22;8604;48.148;-1.786;2023-05-10T22:25:00;12.70;99.90
16976;DHT22;8604;48.148;-1.786;2023-05-10T22:27:28;12.60;99.90
16976;DHT22;8604;48.148;-1.786;2023-05-10T22:29:57;12.50;99.90
16976;DHT22;8604;48.148;-1.786;2023-05-10T22:32:25;12.50;99.90
16976;DHT22;8604;48.148;-1.786;2023-05-10T22:34:53;12.40;99.90
16976;DHT22;8604;48.148;-1.786;2023-05-10T22:37:22;12.40;99.90
16976;DHT22;8604;48.148;-1.786;2023-05-10T22:39:51;12.40;99.90
16976;DHT22;8604;48.148;-1.786;2023-05-10T22:42:20;12.30;99.90
16976;DHT22;8604;48.148;-1.786;2023-05-10T22:44:48;12.30;99.90
16976;DHT22;8604;48.148;-1.786;2023-05-10T22:47:16;12.20;99.90
16976;DHT22;8604;48.148;-1.786;2023-05-10T22:49:45;12.20;99.90
16976;DHT22;8604;48.148;-1.786;2023-05-10T22:52:13;12.10;99.90
16976;DHT22;8604;48.148;-1.786;2023-05-10T22:54:41;12.10;99.90
16976;DHT22;8604;48.148;-1.786;2023-05-10T22:57:11;12.00;99.90
16976;DHT22;8604;48.148;-1.786;2023-05-10T22:59:40;12.10;99.90
16976;DHT22;8604;48.148;-1.786;2023-05-10T23:02:08;12.00;99.90
16976;DHT22;8604;48.148;-1.786;2023-05-10T23:04:37;12.00;99.90
16976;DHT22;8604;48.148;-1.786;2023-05-10T23:07:05;12.00;99.90
16976;DHT22;8604;48.148;-1.786;2023-05-10T23:09:34;12.10;99.90
16976;DHT22;8604;48.148;-1.786;2023-05-10T23:12:02;12.10;99.90
16976;DHT22;8604;48.148;-1.786;2023-05-10T23:14:32;12.00;99.90
16976;DHT22;8604;48.148;-1.786;2023-05-10T23:17:00;12.10;99.90
16976;DHT22;8604;48.148;-1.786;2023-05-10T23:19:29;12.10;99.90
16976;DHT22;8604;48.148;-1.786;2023-05-10T23:21:57;12.10;99.90
16976;DHT22;8604;48.148;-1.786;2023-05-10T23:24:25;12.10;99.90
16976;DHT22;8604;48.148;-1.786;2023-05-10T23:26:54;12.10;99.90
16976;DHT22;8604;48.148;-1.786;2023-05-10T23:29:22;12.10;99.90
16976;DHT22;8604;48.148;-1.786;2023-05-10T23:31:53;12.00;99.90
16976;DHT22;8604;48.148;-1.786;2023-05-10T23:34:22;12.00;99.90
16976;DHT22;8604;48.148;-1.786;2023-05-10T23:36:50;12.10;99.90
16976;DHT22;8604;48.148;-1.786;2023-05-10T23:39:19;12.10;99.90
16976;DHT22;8604;48.148;-1.786;2023-05-10T23:41:47;12.00;99.90
16976;DHT22;8604;48.148;-1.786;2023-05-10T23:44:15;12.00;99.90
16976;DHT22;8604;48.148;-1.786;2023-05-10T23:46:43;11.90;99.90
16976;DHT22;8604;48.148;-1.786;2023-05-10T23:49:13;11.90;99.90
16976;DHT22;8604;48.148;-1.786;2023-05-10T23:51:41;11.80;99.90
16976;DHT22;8604;48.148;-1.786;2023-05-10T23:54:10;11.70;99.90
16976;DHT22;8604;48.148;-1.786;2023-05-10T23:56:38;11.70;99.90
16976;DHT22;8604;48.148;-1.786;2023-05-10T23:59:06;11.70;99.90
